createdAt,value
2022-09-28T00:00:46.915Z,16.99
2022-09-28T00:03:13.767Z,16.88
2022-09-28T00:05:40.296Z,16.76
2022-09-28T00:08:06.725Z,17.19
2022-09-28T00:10:33.201Z,16.86
2022-09-28T00:13:01.386Z,16.72
2022-09-28T00:15:27.876Z,16.72
2022-09-28T00:17:54.365Z,16.69
2022-09-28T00:20:22.730Z,16.61
2022-09-28T00:22:49.294Z,16.60
2022-09-28T00:25:16.918Z,16.51
2022-09-28T00:27:43.407Z,16.44
2022-09-28T00:30:10.291Z,16.45
2022-09-28T00:32:36.722Z,16.38
2022-09-28T00:35:03.260Z,16.31
2022-09-28T00:37:29.760Z,16.32
2022-09-28T00:39:56.247Z,16.30
2022-09-28T00:42:24.858Z,16.34
2022-09-28T00:44:53.719Z,16.23
2022-09-28T00:47:49.792Z,16.15
2022-09-28T00:50:25.446Z,16.21
2022-09-28T00:53:26.602Z,16.42
2022-09-28T00:56:00.488Z,16.46
2022-09-28T00:58:30.079Z,16.32
2022-09-28T01:00:58.923Z,16.22
2022-09-28T01:03:27.765Z,16.18
2022-09-28T01:05:57.207Z,16.11
2022-09-28T01:08:27.183Z,16.13
2022-09-28T01:10:53.675Z,16.16
2022-09-28T01:13:22.148Z,16.23
2022-09-28T01:16:13.017Z,16.14
2022-09-28T01:18:51.739Z,16.05
2022-09-28T01:21:23.647Z,15.96
2022-09-28T01:23:52.961Z,15.83
2022-09-28T01:26:25.397Z,15.85
2022-09-28T01:29:04.593Z,15.89
2022-09-28T01:31:35.690Z,15.91
2022-09-28T01:34:12.159Z,15.91
2022-09-28T01:37:00.916Z,15.93
2022-09-28T01:39:38.249Z,15.95
2022-09-28T01:42:10.068Z,15.92
2022-09-28T01:44:41.624Z,15.91
2022-09-28T01:47:13.022Z,15.90
2022-09-28T01:49:45.722Z,15.87
2022-09-28T01:52:33.858Z,15.93
2022-09-28T01:55:35.871Z,15.96
2022-09-28T01:58:11.029Z,15.96
2022-09-28T02:00:41.790Z,15.93
2022-09-28T02:03:57.972Z,15.93
2022-09-28T02:06:38.836Z,15.93
2022-09-28T02:09:12.699Z,15.91
2022-09-28T02:11:43.245Z,15.94
2022-09-28T02:14:12.268Z,15.83
2022-09-28T02:16:43.847Z,15.85
2022-09-28T02:19:18.225Z,15.85
2022-09-28T02:22:03.097Z,15.88
2022-09-28T02:24:38.795Z,15.99
2022-09-28T02:27:34.235Z,15.91
2022-09-28T02:30:01.417Z,15.84
2022-09-28T02:32:31.135Z,15.90
2022-09-28T02:34:57.744Z,15.96
2022-09-28T02:37:24.418Z,15.88
2022-09-28T02:39:50.861Z,15.89
2022-09-28T02:42:25.702Z,15.93
2022-09-28T02:45:21.745Z,16.08
2022-09-28T02:48:41.242Z,16.13
2022-09-28T02:51:21.129Z,16.09
2022-09-28T02:54:02.535Z,16.11
2022-09-28T02:56:54.430Z,16.17
2022-09-28T02:59:29.694Z,16.25
2022-09-28T03:02:11.458Z,16.25
2022-09-28T03:05:04.071Z,16.22
2022-09-28T03:07:38.522Z,16.20
2022-09-28T03:10:05.105Z,16.31
2022-09-28T03:12:33.256Z,16.20
2022-09-28T03:15:21.247Z,16.13
2022-09-28T03:17:47.751Z,16.38
2022-09-28T03:20:14.202Z,16.17
2022-09-28T03:22:40.783Z,16.07
2022-09-28T03:25:08.643Z,15.95
2022-09-28T03:27:35.186Z,16.07
2022-09-28T03:30:02.045Z,16.23
2022-09-28T03:32:28.443Z,16.10
2022-09-28T03:34:55.850Z,16.03
2022-09-28T03:37:22.342Z,16.10
2022-09-28T03:39:48.855Z,16.13
2022-09-28T03:42:15.295Z,16.06
2022-09-28T03:44:41.739Z,16.29
2022-09-28T03:47:08.956Z,16.08
2022-09-28T03:49:35.729Z,16.03
2022-09-28T03:52:03.138Z,16.11
2022-09-28T03:54:29.950Z,16.30
2022-09-28T03:56:56.535Z,16.09
2022-09-28T03:59:23.012Z,16.18
2022-09-28T04:01:50.546Z,16.24
2022-09-28T04:04:17.386Z,16.05
2022-09-28T04:06:44.140Z,16.09
2022-09-28T04:09:12.280Z,16.34
2022-09-28T04:11:59.808Z,16.30
2022-09-28T04:14:25.308Z,16.26
2022-09-28T04:16:54.846Z,16.18
2022-09-28T04:19:22.178Z,16.29
2022-09-28T04:21:50.987Z,16.26
2022-09-28T04:24:18.360Z,16.30
2022-09-28T04:26:44.812Z,16.02
2022-09-28T04:29:17.518Z,15.93
2022-09-28T04:31:49.778Z,16.18
2022-09-28T04:34:23.189Z,15.90
2022-09-28T04:36:50.080Z,16.03
2022-09-28T04:39:18.254Z,15.78
2022-09-28T04:41:47.928Z,15.70
2022-09-28T04:44:14.367Z,15.71
2022-09-28T04:46:40.822Z,15.49
2022-09-28T04:49:07.227Z,15.35
2022-09-28T04:51:33.736Z,15.36
2022-09-28T04:54:00.178Z,15.34
2022-09-28T04:56:26.808Z,15.39
2022-09-28T04:58:53.308Z,15.34
2022-09-28T05:01:23.423Z,15.24
2022-09-28T05:03:51.125Z,15.23
2022-09-28T05:06:17.910Z,15.28
2022-09-28T05:08:46.916Z,15.36
2022-09-28T05:11:14.338Z,15.37
2022-09-28T05:13:43.487Z,15.29
2022-09-28T05:16:10.615Z,15.46
2022-09-28T05:18:37.198Z,15.34
2022-09-28T05:21:04.673Z,15.44
2022-09-28T05:23:31.120Z,15.31
2022-09-28T05:26:01.782Z,15.20
2022-09-28T05:28:30.956Z,15.20
2022-09-28T05:31:01.684Z,15.23
2022-09-28T05:33:28.926Z,15.06
2022-09-28T05:36:00.776Z,15.13
2022-09-28T05:38:27.806Z,15.07
2022-09-28T05:40:54.317Z,15.31
2022-09-28T05:43:20.849Z,15.11
2022-09-28T05:45:50.423Z,14.93
2022-09-28T05:48:20.901Z,14.96
2022-09-28T05:50:52.327Z,15.02
2022-09-28T05:53:19.135Z,14.94
2022-09-28T05:55:45.647Z,15.16
2022-09-28T05:58:12.205Z,15.23
2022-09-28T06:00:38.692Z,15.23
2022-09-28T06:03:09.403Z,15.19
2022-09-28T06:05:36.836Z,15.27
2022-09-28T06:08:05.235Z,15.32
2022-09-28T06:10:32.561Z,15.42
2022-09-28T06:13:00.623Z,15.31
2022-09-28T06:15:29.862Z,15.21
2022-09-28T06:18:01.821Z,15.35
2022-09-28T06:20:30.058Z,15.42
2022-09-28T06:22:56.601Z,15.43
2022-09-28T06:25:23.985Z,15.62
2022-09-28T06:28:05.271Z,15.76
2022-09-28T06:30:34.386Z,15.61
2022-09-28T06:33:02.299Z,15.70
2022-09-28T06:35:30.445Z,15.71
2022-09-28T06:37:58.239Z,15.76
2022-09-28T06:40:25.139Z,15.79
2022-09-28T06:42:59.499Z,15.72
2022-09-28T06:45:27.820Z,15.69
2022-09-28T06:47:59.415Z,15.76
2022-09-28T06:50:39.727Z,15.69
2022-09-28T06:53:09.315Z,15.80
2022-09-28T06:55:39.426Z,15.83
2022-09-28T06:58:09.768Z,15.84
2022-09-28T07:00:38.178Z,15.99
2022-09-28T07:03:07.339Z,16.20
2022-09-28T07:05:36.924Z,16.45
2022-09-28T07:08:06.327Z,16.85
2022-09-28T07:10:33.383Z,17.42
2022-09-28T07:13:04.110Z,17.36
2022-09-28T07:15:32.165Z,17.34
2022-09-28T07:18:03.123Z,17.37
2022-09-28T07:20:31.247Z,17.02
2022-09-28T07:23:10.092Z,17.12
2022-09-28T07:25:45.350Z,17.13
2022-09-28T07:28:12.255Z,17.09
2022-09-28T07:30:38.866Z,17.06
2022-09-28T07:33:07.294Z,17.15
2022-09-28T07:35:34.433Z,17.37
2022-09-28T07:38:10.807Z,17.29
2022-09-28T07:40:56.193Z,17.36
2022-09-28T07:43:22.685Z,17.50
2022-09-28T07:45:54.199Z,17.53
2022-09-28T07:48:21.667Z,17.60
2022-09-28T07:50:52.849Z,17.55
2022-09-28T07:53:20.331Z,17.83
2022-09-28T07:55:53.961Z,17.87
2022-09-28T07:58:20.748Z,18.45
2022-09-28T08:00:48.622Z,17.91
2022-09-28T08:03:19.439Z,17.76
2022-09-28T08:05:48.088Z,17.70
2022-09-28T08:08:15.455Z,17.75
2022-09-28T08:10:46.969Z,17.80
2022-09-28T08:13:15.252Z,18.00
2022-09-28T08:15:42.609Z,18.11
2022-09-28T08:18:09.872Z,18.07
2022-09-28T08:20:55.053Z,18.11
2022-09-28T08:23:21.892Z,17.94
2022-09-28T08:25:49.675Z,18.13
2022-09-28T08:28:17.709Z,18.42
2022-09-28T08:30:45.655Z,18.50
2022-09-28T08:33:13.585Z,18.43
2022-09-28T08:35:43.363Z,18.60
2022-09-28T08:38:10.914Z,18.62
2022-09-28T08:40:57.780Z,18.74
2022-09-28T08:43:42.854Z,18.62
2022-09-28T08:46:11.635Z,18.66
2022-09-28T08:52:00.373Z,18.97
2022-09-28T08:54:51.949Z,19.04
2022-09-28T08:57:34.016Z,18.93
2022-09-28T09:00:02.529Z,18.95
2022-09-28T09:02:33.511Z,18.95
2022-09-28T09:05:06.099Z,18.88
2022-09-28T09:08:23.471Z,18.86
2022-09-28T09:11:02.310Z,19.03
2022-09-28T09:14:27.211Z,19.07
2022-09-28T09:17:00.405Z,19.10
2022-09-28T09:19:45.884Z,19.34
2022-09-28T09:22:16.887Z,19.59
2022-09-28T09:24:51.965Z,19.60
2022-09-28T09:27:32.284Z,19.73
2022-09-28T09:30:19.401Z,19.62
2022-09-28T09:33:29.187Z,19.68
2022-09-28T09:36:37.853Z,19.75
2022-09-28T09:39:41.467Z,19.71
2022-09-28T09:42:43.809Z,19.75
2022-09-28T09:45:18.925Z,19.81
2022-09-28T09:47:53.397Z,19.89
2022-09-28T09:50:32.083Z,19.93
2022-09-28T09:53:29.376Z,19.88
2022-09-28T09:56:01.711Z,20.15
2022-09-28T09:58:35.736Z,20.10
2022-09-28T10:01:10.922Z,20.07
2022-09-28T10:03:42.304Z,20.31
2022-09-28T10:06:13.407Z,20.38
2022-09-28T10:08:46.156Z,20.65
2022-09-28T10:11:22.146Z,20.59
2022-09-28T10:13:49.216Z,20.79
2022-09-28T10:16:19.274Z,20.78
2022-09-28T10:18:45.835Z,20.78
2022-09-28T10:21:14.496Z,20.88
2022-09-28T10:23:42.528Z,20.99
2022-09-28T10:26:25.156Z,20.92
2022-09-28T10:29:01.668Z,20.74
2022-09-28T10:31:47.518Z,20.86
2022-09-28T10:34:15.587Z,21.04
2022-09-28T10:37:03.387Z,21.22
2022-09-28T10:39:33.660Z,21.48
2022-09-28T10:42:04.240Z,21.43
2022-09-28T10:44:34.343Z,21.61
2022-09-28T10:47:03.383Z,21.73
2022-09-28T10:49:46.843Z,21.92
2022-09-28T10:52:35.105Z,21.83
2022-09-28T10:55:02.398Z,21.67
2022-09-28T10:57:34.670Z,21.80
2022-09-28T11:00:02.754Z,21.87
2022-09-28T11:02:35.991Z,21.98
2022-09-28T11:05:05.846Z,22.03
2022-09-28T11:07:34.296Z,22.09
2022-09-28T11:10:01.926Z,22.30
2022-09-28T11:12:36.971Z,22.42
2022-09-28T11:15:07.568Z,22.61
2022-09-28T11:17:41.980Z,22.69
2022-09-28T11:20:28.262Z,22.51
2022-09-28T11:22:58.580Z,22.68
2022-09-28T11:25:29.720Z,22.84
2022-09-28T11:27:58.039Z,23.00
2022-09-28T11:30:49.906Z,23.03
2022-09-28T11:33:20.612Z,23.23
2022-09-28T11:35:57.350Z,23.34
2022-09-28T11:38:54.385Z,23.33
2022-09-28T11:41:49.095Z,23.34
2022-09-28T11:44:38.027Z,23.17
2022-09-28T11:47:17.663Z,23.08
2022-09-28T11:49:57.447Z,22.99
2022-09-28T11:52:32.377Z,23.30
2022-09-28T11:55:05.331Z,23.22
2022-09-28T11:57:38.359Z,23.44
2022-09-28T12:00:09.968Z,23.38
2022-09-28T12:02:42.640Z,23.44
2022-09-28T12:05:19.846Z,23.37
2022-09-28T12:07:54.311Z,23.32
2022-09-28T12:10:45.635Z,23.23
2022-09-28T12:13:18.806Z,23.08
2022-09-28T12:16:32.710Z,22.90
2022-09-28T12:21:36.310Z,23.05
2022-09-28T12:24:33.292Z,23.35
2022-09-28T12:27:23.964Z,23.19
2022-09-28T12:30:15.330Z,23.40
2022-09-28T12:33:00.565Z,23.35
2022-09-28T12:35:52.556Z,23.16
2022-09-28T12:38:34.146Z,22.92
2022-09-28T12:41:41.962Z,23.00
2022-09-28T12:44:40.859Z,23.02
2022-09-28T12:47:16.112Z,22.99
2022-09-28T12:53:12.376Z,23.04
2022-09-28T12:55:44.959Z,23.01
2022-09-28T12:58:36.454Z,23.20
2022-09-28T13:01:12.182Z,23.06
2022-09-28T13:03:47.588Z,23.07
2022-09-28T13:06:34.690Z,22.90
2022-09-28T13:09:25.077Z,22.96
2022-09-28T13:12:00.600Z,23.01
2022-09-28T13:14:45.102Z,22.99
2022-09-28T13:17:14.473Z,23.30
2022-09-28T13:19:57.775Z,23.22
2022-09-28T13:22:46.091Z,23.31
2022-09-28T13:25:21.990Z,23.29
2022-09-28T13:27:53.404Z,23.23
2022-09-28T13:30:20.130Z,23.36
2022-09-28T13:32:48.719Z,23.40
2022-09-28T13:35:20.234Z,22.96
2022-09-28T13:37:47.933Z,22.70
2022-09-28T13:40:14.775Z,22.53
2022-09-28T13:42:53.175Z,22.65
2022-09-28T13:45:53.821Z,22.62
2022-09-28T13:48:24.531Z,22.84
2022-09-28T13:51:05.050Z,22.80
2022-09-28T13:53:52.689Z,22.95
2022-09-28T13:56:32.676Z,22.70
2022-09-28T13:59:11.948Z,22.75
2022-09-28T14:01:51.579Z,22.52
2022-09-28T14:04:20.901Z,22.67
2022-09-28T14:07:10.580Z,22.86
2022-09-28T14:09:44.872Z,22.86
2022-09-28T14:12:30.102Z,22.90
2022-09-28T14:14:57.024Z,22.79
2022-09-28T14:17:30.365Z,23.03
2022-09-28T14:20:07.220Z,23.06
2022-09-28T14:22:53.258Z,22.86
2022-09-28T14:25:30.235Z,22.75
2022-09-28T14:28:38.315Z,22.73
2022-09-28T14:31:14.238Z,22.82
2022-09-28T14:33:42.985Z,22.76
2022-09-28T14:36:47.427Z,22.73
2022-09-28T14:39:52.398Z,22.74
2022-09-28T14:42:23.804Z,22.72
2022-09-28T14:45:06.100Z,23.05
2022-09-28T14:47:37.992Z,22.80
2022-09-28T14:50:24.669Z,22.98
2022-09-28T14:52:54.199Z,23.07
2022-09-28T14:55:31.902Z,22.59
2022-09-28T14:57:59.150Z,22.90
2022-09-28T15:00:30.336Z,22.75
2022-09-28T15:03:02.126Z,22.68
2022-09-28T15:05:30.861Z,22.52
2022-09-28T15:07:57.922Z,22.54
2022-09-28T15:10:33.552Z,22.80
2022-09-28T15:13:18.204Z,22.76
2022-09-28T15:15:50.421Z,22.62
2022-09-28T15:18:49.459Z,22.89
2022-09-28T15:21:16.419Z,22.55
2022-09-28T15:23:45.026Z,22.59
2022-09-28T15:26:32.335Z,22.49
2022-09-28T15:29:03.154Z,22.41
2022-09-28T15:31:35.522Z,22.42
2022-09-28T15:34:20.419Z,22.42
2022-09-28T15:36:47.200Z,22.39
2022-09-28T15:39:24.363Z,22.23
2022-09-28T15:41:51.235Z,22.17
2022-09-28T15:44:33.031Z,22.25
2022-09-28T15:47:10.796Z,22.27
2022-09-28T15:49:41.713Z,22.30
2022-09-28T15:52:23.515Z,22.42
2022-09-28T15:54:50.077Z,22.43
2022-09-28T15:57:39.968Z,22.50
2022-09-28T16:00:21.810Z,22.32
2022-09-28T16:03:21.023Z,22.43
2022-09-28T16:05:59.688Z,22.35
2022-09-28T16:08:45.772Z,22.21
2022-09-28T16:11:21.153Z,22.13
2022-09-28T16:14:08.861Z,22.33
2022-09-28T16:16:41.133Z,22.27
2022-09-28T16:19:24.084Z,22.23
2022-09-28T16:21:55.837Z,22.14
2022-09-28T16:24:25.438Z,22.06
2022-09-28T16:27:02.689Z,21.92
2022-09-28T16:29:44.953Z,21.86
2022-09-28T16:32:24.797Z,21.89
2022-09-28T16:35:12.637Z,21.90
2022-09-28T16:37:43.636Z,21.73
2022-09-28T16:40:12.101Z,21.64
2022-09-28T16:42:46.795Z,21.68
2022-09-28T16:45:29.983Z,21.63
2022-09-28T16:47:57.486Z,21.54
2022-09-28T16:50:25.333Z,21.63
2022-09-28T16:53:31.445Z,21.55
2022-09-28T16:55:59.687Z,21.49
2022-09-28T16:58:26.379Z,21.36
2022-09-28T17:00:54.632Z,21.29
2022-09-28T17:03:23.400Z,21.54
2022-09-28T17:05:51.080Z,21.53
2022-09-28T17:08:21.685Z,21.39
2022-09-28T17:11:16.610Z,21.24
2022-09-28T17:13:42.468Z,21.17
2022-09-28T17:16:15.277Z,21.07
2022-09-28T17:18:41.856Z,21.13
2022-09-28T17:21:18.162Z,21.13
2022-09-28T17:23:49.358Z,20.97
2022-09-28T17:26:30.650Z,20.99
2022-09-28T17:29:01.788Z,21.12
2022-09-28T17:31:29.853Z,20.98
2022-09-28T17:33:56.612Z,21.79
2022-09-28T17:36:23.626Z,21.52
2022-09-28T17:38:51.800Z,21.34
2022-09-28T17:41:20.847Z,21.24
2022-09-28T17:43:48.198Z,21.75
2022-09-28T17:46:26.942Z,21.41
2022-09-28T17:48:54.239Z,21.26
2022-09-28T17:51:22.161Z,21.01
2022-09-28T17:53:48.695Z,21.15
2022-09-28T17:56:15.376Z,21.16
2022-09-28T17:58:41.910Z,20.90
2022-09-28T18:01:09.371Z,20.76
2022-09-28T18:03:35.870Z,21.03
2022-09-28T18:06:06.568Z,21.17
2022-09-28T18:08:33.795Z,21.10
2022-09-28T18:11:01.654Z,21.11
2022-09-28T18:13:28.397Z,21.02
2022-09-28T18:15:56.119Z,20.98
2022-09-28T18:18:23.954Z,21.33
2022-09-28T18:20:51.385Z,21.12
2022-09-28T18:23:18.123Z,21.02
2022-09-28T18:25:46.175Z,20.98
2022-09-28T18:28:13.348Z,21.06
2022-09-28T18:30:42.715Z,20.97
2022-09-28T18:33:10.435Z,21.07
2022-09-28T18:35:37.214Z,20.92
2022-09-28T18:38:08.062Z,21.00
2022-09-28T18:40:35.794Z,20.94
2022-09-28T18:43:03.719Z,20.87
2022-09-28T18:45:30.194Z,20.92
2022-09-28T18:47:57.642Z,20.95
2022-09-28T18:50:24.138Z,21.13
2022-09-28T18:52:50.672Z,21.05
2022-09-28T18:55:17.188Z,21.02
2022-09-28T18:57:44.689Z,20.96
2022-09-28T19:00:12.406Z,21.04
2022-09-28T19:02:39.235Z,21.14
2022-09-28T19:05:06.533Z,21.01
2022-09-28T19:07:33.955Z,20.83
2022-09-28T19:10:00.463Z,21.05
2022-09-28T19:12:26.968Z,20.97
2022-09-28T19:14:53.499Z,20.85
2022-09-28T19:17:20.049Z,20.97
2022-09-28T19:19:46.597Z,20.96
2022-09-28T19:22:13.132Z,21.17
2022-09-28T19:24:39.689Z,20.87
2022-09-28T19:27:06.269Z,20.97
2022-09-28T19:29:32.778Z,21.05
2022-09-28T19:31:59.198Z,20.84
2022-09-28T19:34:29.865Z,20.74
2022-09-28T19:36:56.967Z,20.68
2022-09-28T19:39:23.463Z,20.70
2022-09-28T19:41:51.315Z,20.99
2022-09-28T19:44:29.015Z,21.04
2022-09-28T19:46:56.711Z,20.92
2022-09-28T19:49:24.891Z,20.86
2022-09-28T19:52:14.937Z,20.78
2022-09-28T19:55:00.237Z,21.04
2022-09-28T19:57:32.563Z,21.16
2022-09-28T20:00:03.194Z,21.03
2022-09-28T20:02:30.173Z,20.86
2022-09-28T20:04:56.686Z,20.86
2022-09-28T20:07:23.172Z,21.06
2022-09-28T20:09:49.639Z,21.08
2022-09-28T20:12:16.148Z,21.02
2022-09-28T20:14:42.888Z,20.91
2022-09-28T20:17:09.616Z,20.98
2022-09-28T20:19:36.194Z,21.02
2022-09-28T20:22:02.996Z,21.10
2022-09-28T20:24:31.142Z,21.21
2022-09-28T20:26:58.067Z,21.09
2022-09-28T20:29:24.934Z,21.03
2022-09-28T20:31:51.938Z,20.77
2022-09-28T20:34:18.698Z,21.07
2022-09-28T20:36:45.230Z,20.86
2022-09-28T20:39:12.342Z,20.59
2022-09-28T20:41:39.029Z,20.63
2022-09-28T20:44:06.662Z,20.81
2022-09-28T20:46:37.311Z,20.94
2022-09-28T20:49:05.226Z,21.19
2022-09-28T20:51:32.366Z,21.06
2022-09-28T20:53:59.410Z,21.02
2022-09-28T20:56:28.475Z,21.00
2022-09-28T20:58:55.788Z,20.89
2022-09-28T21:01:27.620Z,20.91
2022-09-28T21:03:55.419Z,20.88
2022-09-28T21:06:25.306Z,20.82
2022-09-28T21:08:52.281Z,20.59
2022-09-28T21:11:21.439Z,20.76
2022-09-28T21:13:51.431Z,20.65
2022-09-28T21:16:18.135Z,20.44
2022-09-28T21:18:45.170Z,20.34
2022-09-28T21:21:13.735Z,20.55
2022-09-28T21:23:40.754Z,20.32
2022-09-28T21:26:25.010Z,20.18
2022-09-28T21:29:06.261Z,20.20
2022-09-28T21:31:37.366Z,20.11
2022-09-28T21:34:04.812Z,20.37
2022-09-28T21:36:31.784Z,20.23
2022-09-28T21:38:58.323Z,20.27
2022-09-28T21:41:25.432Z,20.17
2022-09-28T21:43:52.470Z,20.34
2022-09-28T21:46:19.027Z,20.09
2022-09-28T21:48:45.548Z,20.06
2022-09-28T21:51:15.799Z,20.22
2022-09-28T21:53:42.882Z,20.12
2022-09-28T21:56:11.807Z,19.88
2022-09-28T21:58:40.062Z,19.82
2022-09-28T22:01:15.437Z,19.88
2022-09-28T22:03:44.063Z,19.79
2022-09-28T22:06:11.463Z,19.65
2022-09-28T22:08:38.765Z,19.67
2022-09-28T22:11:13.645Z,19.61
2022-09-28T22:13:45.782Z,19.63
2022-09-28T22:16:14.247Z,19.65
2022-09-28T22:18:41.272Z,19.70
2022-09-28T22:21:15.368Z,19.71
2022-09-28T22:23:42.439Z,19.66
2022-09-28T22:26:17.902Z,19.70
2022-09-28T22:28:47.019Z,19.70
2022-09-28T22:31:15.008Z,19.53
2022-09-28T22:33:41.748Z,19.76
2022-09-28T22:36:08.328Z,19.58
2022-09-28T22:38:35.375Z,19.38
2022-09-28T22:41:03.830Z,19.22
2022-09-28T22:43:30.985Z,19.26
2022-09-28T22:46:05.293Z,19.07
2022-09-28T22:48:32.532Z,19.05
2022-09-28T22:50:59.534Z,18.87
2022-09-28T22:53:26.315Z,18.77
2022-09-28T22:55:52.835Z,18.61
2022-09-28T22:58:19.293Z,18.95
2022-09-28T23:00:45.762Z,19.33
2022-09-28T23:03:12.375Z,18.96
2022-09-28T23:05:38.914Z,19.15
2022-09-28T23:08:05.400Z,18.76
2022-09-28T23:10:32.592Z,18.63
2022-09-28T23:13:00.110Z,18.65
2022-09-28T23:15:27.869Z,18.51
2022-09-28T23:17:55.118Z,18.49
2022-09-28T23:20:22.035Z,18.56
2022-09-28T23:22:49.282Z,18.41
2022-09-28T23:25:17.172Z,18.56
2022-09-28T23:27:47.837Z,18.59
2022-09-28T23:30:16.130Z,18.62
2022-09-28T23:32:42.661Z,18.32
2022-09-28T23:35:10.024Z,18.41
2022-09-28T23:37:37.597Z,18.23
2022-09-28T23:40:06.287Z,18.25
2022-09-28T23:42:34.714Z,18.23
2022-09-28T23:45:01.150Z,18.47
2022-09-28T23:47:27.630Z,18.43
2022-09-28T23:49:54.061Z,18.21
2022-09-28T23:52:20.527Z,18.67
2022-09-28T23:54:47.113Z,18.33
2022-09-28T23:57:13.613Z,18.18
2022-09-28T23:59:40.130Z,18.20
